Terminal Aerodrome Forecast
Issued by NWS Houston/Galveston, TX

Home | Current Version | Previous Version | Text Only | Print | Product List | Glossary On
Versions: 1 2 3 4 5 6 7 8 9 10 11 12 13 14 15 16 17 18 19 20 21 22 23 24 25 26 27 28 29 30 31 32 33
000
FTUS44 KHGX 012320
TAFGLS
TAF
KGLS 012320Z 0200/0224 15014KT P6SM FEW015 BKN120
     FM020300 15010KT 6SM BR BKN015
     FM020900 16010KT 6SM BR SCT008 OVC012
     FM021600 18014KT 6SM BR BKN012
     FM022000 15015KT P6SM FEW012 SCT035=

USA.gov is the U.S. government's official web portal to all federal, state and local government web resources and services.